Sault Ste. Marie, MI

12:16 AM EDT del 04 Luglio 2015 (GMT -0400)
Sault Ste Marie Municipal / Sanderson Field | | Change Station
CLOSE
Current Station
Aeroporto
Location: Sault Ste Marie,
Altitudine: 715 ft
Stazioni meteo nelle vicinanze

Alt. 715 ft 46.48 °N, 84.36 °W | Updated 21 minutes ago

Clear
Sereno
60 °F
Sembra 60 °F
N
5
Vento Variabile Vento da Sud

Oggi
Massima -- | Minima -- °F
--% Possibilità di precip.
Ieri
Massima -- | Minima -- °F
Precip. -- in
5:50 AM 9:33 PM
Gobba a levante, 94% visible
Pressione 29.87 in
Visibilità 10.0 miglia
Nuvole Sereno
Punto di rugiada 53 °F
Umidità 78%
Piovosità 0.00 in
Spessore del manto nevoso Non disponibile.
Raggi UV 0 fuori da 12
Polline 4.70 fuori da 12
Qualità dell'aria Non disponibile.
Flu Activity Non disponibile.
METAR KANJ 040355Z AUTO 19004KT 10SM CLR 16/12 A2988 RMK AO2 SLP115 T01560117

More Conditions Fewer Conditions

Pressione 29.87 in
Visibilità 10.0 miglia
Nuvole Sereno
Punto di rugiada 53 °F
Umidità 78%
Piovosità 0.00 in
Spessore del manto nevoso Non disponibile.
Raggi UV 0 fuori da 12
Polline 4.70 fuori da 12
Qualità dell'aria Non disponibile.
Flu Activity Non disponibile.
METAR KANJ 040355Z AUTO 19004KT 10SM CLR 16/12 A2988 RMK AO2 SLP115 T01560117

More Conditions Fewer Conditions

Nowcast | as of 12:00 am EDT on July 4, 2015

At 1 am...partly cloudy. Temperature 58. Light winds. At 3 am...partly cloudy. Temperature 56. Light winds. At 5 am...partly cloudy. Temperature 55. Light winds. At 7 am...partly cloudy. Temperature 53. Light winds.

×

10-Day Weather Forecast

×

Almanac

Astronomia

Jul. 04, 2015 Alba Tramonto
Ora attuale
Crepuscolo civile
Crepuscolo nautico
Crepuscolo astronomico
Luna
Estensione della luce visibile
Lunghezza del giorno
Tomorrow will be .
, % of the Moon is Illuminated

Gli estremi di oggi

State Highs State Lows

Community

WunderPhotos

Upload Photos

1,834,928 foto caricate!

WunderBlogs® & News

Nearby

Qualità dell'aria

  Qualità dell'aria Indice AQ Inquinante
Not available.

Profondità neve

Stazione Profondità Altitudine

Attività sismica

Città  Distanza Mag. Data & Ora
Minimo Magnitudo Mostrato è 2.5.

Temperature delle acque costiere

Località Temperatura

Stations

Stazioni meteo nelle vicinanze

Ubicazione della stazione Temp. Raffreddamento del vento Punto di rugiada Umidità Vento Precip. Alt. Aggiornato Tipo